Aguas Blancas, Argentina
Current Conditions -  °F | °C
As of 10:00 AM on Monday 20 Oct 2014 (Local Time) from SASJ Reporting Station
Overcast Overcast  
Wind Chill: 64°   Ceiling: 1500
Heat Index: 64°   Visibility: 5mi
Dew Point: 59°   Wind: 3mph
Humidity: 83%   Direction: 160°SSE
Pressure: 30.18"   Gusts: NA
Location:  23.05°S, 64.43°W
Report Text: SASJ 201300Z 16003KT 8000 BKN015 BKN040OVC100 18/15 Q1022
Loading
Personal Weather Stations






























Interactive Weather Map New forecast layout! Learn more

10-Day Weather Forecast

Advertisements
Track Severe Weather on mobile